Latest Weather Observations for Cape Sorell

IDT60801

Issued at 9:31 am EDT Saturday 13 February 2016 (issued every 30 minutes, with the page automatically refreshed every 10 minutes)

About weather observations | Map of weather stations | Latest weather observations for TAS | Other Formats
Station Details ID: 097000 Name: CAPE SORELL Lat: -42.20 Lon: 145.17 Height: 19.3 m
Data from the previous 72 hours. | See also: Recent months at Cape Sorell
Date/Time
EDT
Temp
°C
App
Temp
°C
Dew
Point
Rel
Hum
%
Delta-T
°C
Wind Press
QNH
hPa
Press
MSL
hPa
Rain
since 9 am
mm
Dir
 
Spd
km/h
Gust
km/h
Spd
kts
Gust
kts
13/09:30am 19.3 15.5 13.7 70 3.2 NNW 26 33 14 18 1005.9 1005.9 0.0
13/09:00am 19.4 15.4 13.1 67 3.6 NNW 26 33 14 18 1005.8 1005.8 0.0
13/08:30am 18.8 16.1 14.5 76 2.5 NNW 22 30 12 16 1005.9 1005.9 0.0
13/08:00am 18.0 14.7 14.1 78 2.2 NNW 24 33 13 18 1006.0 1006.0 0.0
13/07:30am 17.5 15.1 14.4 82 1.8 NNW 20 30 11 16 1006.1 1006.1 0.0
13/07:00am 17.4 14.2 14.3 82 1.8 NNW 24 33 13 18 1006.2 1006.2 0.0
13/06:30am 17.6 14.1 14.5 82 1.8 NNW 26 35 14 19 1005.9 1005.9 0.0
13/06:00am 17.4 12.1 14.1 81 1.9 N 35 43 19 23 1005.9 1005.9 0.0
13/05:30am 17.4 11.6 13.9 80 2.0 N 37 50 20 27 1005.6 1005.6 0.0
13/05:00am 17.5 12.1 14.0 80 2.0 N 35 43 19 23 1005.5 1005.5 0.0
13/04:30am 17.4 12.1 14.1 81 1.9 N 35 43 19 23 1006.1 1006.1 0.0
13/04:00am 17.2 11.5 14.1 82 1.8 N 37 46 20 25 1006.0 1006.0 0.0
13/03:30am 17.1 11.3 14.0 82 1.8 N 37 44 20 24 1006.2 1006.2 0.0
13/03:00am 17.1 11.9 14.4 84 1.6 N 35 44 19 24 1007.2 1007.2 0.0
13/02:30am 17.1 12.5 14.6 85 1.4 N 32 41 17 22 1007.4 1007.4 0.0
13/02:00am 17.1 13.3 14.7 86 1.4 N 28 33 15 18 1007.9 1007.9 0.0
13/01:30am 17.4 14.1 14.9 85 1.4 N 26 32 14 17 1008.1 1008.1 0.0
13/01:00am 17.4 15.2 14.9 85 1.5 NNW 20 26 11 14 1008.8 1008.8 0.0
13/12:30am 17.3 14.9 14.4 83 1.7 NW 20 24 11 13 1009.4 1009.4 0.0
13/12:00am 17.3 15.0 14.2 82 1.8 NW 19 26 10 14 1009.5 1009.5 0.0
 
Date/Time
EDT
Temp
°C
App
Temp
°C
Dew
Point
Rel
Hum
%
Delta-T
°C
Wind Press
QNH
hPa
Press
MSL
hPa
Rain
since 9 am
mm
Dir
 
Spd
km/h
Gust
km/h
Spd
kts
Gust
kts
12/11:30pm 17.2 15.2 13.9 81 1.9 NNW 17 22 9 12 1009.5 1009.5 0.0
12/11:00pm 17.2 15.5 13.7 80 2.0 NNW 15 20 8 11 1010.0 1010.0 0.0
12/10:30pm 17.0 15.6 13.5 80 2.0 NNW 13 17 7 9 1010.3 1010.3 0.0
12/10:00pm 16.8 16.0 12.9 78 2.2 NNW 9 13 5 7 1010.5 1010.5 0.0
12/09:30pm 17.0 15.8 12.7 76 2.4 NNW 11 13 6 7 1010.9 1010.9 0.0
12/09:00pm 17.1 16.1 12.4 74 2.6 NNW 9 13 5 7 1011.0 1011.0 0.0
12/08:30pm 17.0 15.9 12.1 73 2.7 NNW 9 13 5 7 1011.0 1011.0 0.0
12/08:00pm 17.1 16.4 12.0 72 2.8 NNW 7 9 4 5 1011.2 1011.2 0.0
12/07:30pm 17.9 17.5 12.4 70 3.1 NW 6 7 3 4 1011.4 1011.4 0.0
12/07:00pm 18.1 17.5 12.3 69 3.2 W 7 9 4 5 1011.6 1011.6 0.0
12/06:30pm 18.9 18.5 12.9 68 3.4 WSW 7 9 4 5 1011.8 1011.8 0.0
12/06:00pm 19.3 18.9 13.0 67 3.6 WSW 7 9 4 5 1011.9 1011.9 0.0
12/05:30pm 20.4 19.8 13.6 65 3.9 SW 9 13 5 7 1012.1 1012.1 0.0
12/05:00pm 20.4 18.8 13.8 66 3.8 SSW 15 17 8 9 1012.1 1012.1 0.0
12/04:30pm 20.0 17.3 13.5 66 3.7 SSW 20 24 11 13 1012.4 1012.4 0.0
12/04:00pm 20.3 16.9 13.7 66 3.8 SSW 24 28 13 15 1012.6 1012.6 0.0
12/03:30pm 20.3 17.6 13.5 65 3.9 SSW 20 24 11 13 1012.6 1012.6 0.0
12/03:00pm 20.2 17.1 13.4 65 3.9 SSW 22 26 12 14 1012.8 1012.8 0.0
12/02:30pm 20.1 17.0 13.3 65 3.9 SSW 22 26 12 14 1013.2 1013.2 0.0
12/02:00pm 20.1 16.7 12.6 62 4.2 SSW 22 24 12 13 1013.6 1013.6 0.0
12/01:30pm 20.0 16.8 12.0 60 4.5 SSW 20 24 11 13 1014.1 1014.1 0.0
12/01:00pm 21.3 18.4 12.4 57 5.0 SSW 19 20 10 11 1014.6 1014.6 0.0
12/12:30pm 20.5 17.7 12.7 61 4.4 SSW 19 20 10 11 1014.8 1014.8 0.0
12/12:00pm 19.2 17.4 12.0 63 4.0 SSW 13 15 7 8 1015.2 1015.2 0.0
12/11:30am 18.6 16.4 12.1 66 3.6 SSW 15 19 8 10 1015.8 1015.7 0.0
12/11:00am 18.3 16.1 12.1 67 3.4 SSW 15 17 8 9 1016.5 1016.4 0.0
12/10:30am 17.5 15.9 11.5 68 3.3 SSW 11 13 6 7 1016.8 1016.7 0.0
12/10:00am 16.8 15.9 11.5 71 2.9 S 7 9 4 5 1017.1 1017.0 0.0
12/09:30am 16.5 16.2 12.7 78 2.1 SSW 6 9 3 5 1017.3 1017.2 0.0
12/09:00am 15.7 15.8 12.6 82 1.7 SSW 4 6 2 3 1017.5 1017.4 0.0
12/08:30am 15.4 15.9 12.9 85 1.4 SE 2 4 1 2 1017.6 1017.5 0.0
12/08:00am 14.2 14.4 11.9 86 1.2 NE 2 4 1 2 1017.3 1017.2 0.0
12/07:30am 13.4 12.6 10.9 85 1.3 ENE 6 7 3 4 1017.0 1016.9 0.0
12/07:00am 12.9 11.6 10.1 83 1.4 E 7 9 4 5 1016.7 1016.6 0.0
12/06:30am 12.7 10.1 9.5 81 1.6 ESE 13 15 7 8 1016.4 1016.3 0.0
12/06:00am 12.6 10.0 9.4 81 1.6 ESE 13 15 7 8 1016.2 1016.1 0.0
12/05:30am 11.9 10.0 8.9 82 1.5 SE 9 11 5 6 1016.2 1016.1 0.0
12/05:00am 12.2 9.9 9.0 81 1.6 SE 11 13 6 7 1016.5 1016.4 0.0
12/04:30am 12.0 10.0 8.7 80 1.6 SE 9 13 5 7 1016.8 1016.7 0.0
12/04:00am 12.3 10.0 9.0 80 1.7 SE 11 15 6 8 1016.9 1016.8 0.0
12/03:30am 12.5 10.2 9.0 79 1.8 SE 11 13 6 7 1017.4 1017.3 0.0
12/03:00am 12.4 9.7 8.9 79 1.7 SE 13 15 7 8 1017.5 1017.4 0.0
12/02:30am 12.6 9.9 8.9 78 1.9 SE 13 15 7 8 1017.7 1017.6 0.0
12/02:00am 12.9 10.2 9.0 77 2.0 SE 13 15 7 8 1017.9 1017.8 0.0
12/01:30am 13.3 10.6 9.0 75 2.2 ESE 13 17 7 9 1018.1 1018.0 0.0
12/01:00am 13.3 10.9 8.8 74 2.3 SE 11 17 6 9 1018.2 1018.1 0.0
12/12:30am 13.5 10.8 8.8 73 2.4 SE 13 17 7 9 1018.4 1018.3 0.0
12/12:00am 13.3 10.5 8.6 73 2.3 SE 13 17 7 9 1018.5 1018.4 0.0
 
Date/Time
EDT
Temp
°C
App
Temp
°C
Dew
Point
Rel
Hum
%
Delta-T
°C
Wind Press
QNH
hPa
Press
MSL
hPa
Rain
since 9 am
mm
Dir
 
Spd
km/h
Gust
km/h
Spd
kts
Gust
kts
11/11:30pm 14.3 11.7 9.3 72 2.6 SSE 13 17 7 9 1018.7 1018.6 0.0
11/11:00pm 14.9 12.1 9.9 72 2.6 S 15 20 8 11 1018.7 1018.6 0.0
11/10:30pm 15.1 12.3 10.1 72 2.6 S 15 19 8 10 1018.6 1018.5 0.0
11/10:00pm 15.2 12.0 10.0 71 2.7 SSE 17 20 9 11 1018.5 1018.4 0.0
11/09:30pm 15.9 11.4 10.0 68 3.1 S 24 30 13 16 1018.3 1018.2 0.0
11/09:00pm 16.0 10.8 10.1 68 3.1 S 28 35 15 19 1018.1 1018.0 0.0
11/08:30pm 16.1 10.8 10.0 67 3.2 S 28 35 15 19 1017.7 1017.6 0.0
11/08:00pm 16.6 11.4 10.2 66 3.4 SSW 28 35 15 19 1017.3 1017.2 0.0
11/07:30pm 17.0 11.3 9.9 63 3.7 SSW 30 35 16 19 1017.2 1017.1 0.0
11/07:00pm 17.1 11.3 9.5 61 4.0 SSW 30 35 16 19 1017.1 1017.0 0.0
11/06:30pm 17.8 12.1 9.9 60 4.2 SSW 30 33 16 18 1017.0 1016.9 0.0
11/06:00pm 18.4 12.8 10.0 58 4.5 SW 30 35 16 19 1017.2 1017.1 0.0
11/05:30pm 19.3 15.0 10.8 58 4.6 SSW 24 28 13 15 1016.8 1016.7 0.0
11/05:00pm 19.5 15.3 11.0 58 4.6 SW 24 28 13 15 1016.8 1016.7 0.0
11/04:30pm 20.0 16.0 11.8 59 4.6 SSW 24 30 13 16 1017.0 1016.9 0.0
11/04:00pm 20.0 15.9 11.5 58 4.7 SW 24 30 13 16 1017.0 1016.9 0.0
11/03:30pm 20.3 16.5 11.2 56 5.0 SW 22 26 12 14 1017.2 1017.1 0.0
11/03:00pm 20.6 16.8 11.2 55 5.2 SSW 22 26 12 14 1017.3 1017.2 0.0
11/02:30pm 20.9 17.5 11.3 54 5.3 SSW 20 26 11 14 1017.6 1017.5 0.0
11/02:00pm 20.5 17.7 11.4 56 5.0 SSW 17 20 9 11 1017.6 1017.5 0.0
11/01:30pm 20.1 16.9 11.3 57 4.8 SSW 19 24 10 13 1017.5 1017.4 0.0
11/01:00pm 20.1 17.0 11.6 58 4.7 SSW 19 22 10 12 1017.5 1017.4 0.0
11/12:30pm 19.3 16.3 10.8 58 4.6 SSW 17 20 9 11 1017.5 1017.4 0.0
11/12:00pm 19.7 18.3 12.2 62 4.2 SSW 11 17 6 9 1017.6 1017.5 0.0
11/11:30am 17.9 16.7 11.5 66 3.5 S 9 13 5 7 1017.6 1017.5 0.0
11/11:00am 17.4 15.8 11.4 68 3.3 S 11 17 6 9 1017.5 1017.4 0.0
11/10:30am 16.8 15.1 12.3 75 2.5 S 13 19 7 10 1017.7 1017.6 0.0
11/10:00am 15.6 13.4 12.2 80 1.9 SSW 15 20 8 11 1018.0 1017.9 0.0
11/09:30am 15.3 15.3 12.4 83 1.6 SSE 4 7 2 4 1017.8 1017.7 0.0
11/09:00am 15.0 14.3 12.1 83 1.6 SE 7 9 4 5 1017.5 1017.4 0.2
11/08:30am 15.1 14.6 12.1 82 1.6 SSE 6 7 3 4 1017.0 1016.9 0.2
11/08:00am 15.2 14.7 12.0 81 1.7 SSE 6 7 3 4 1016.6 1016.5 0.0
11/07:30am 15.2 14.5 12.0 81 1.7 E 7 9 4 5 1016.2 1016.1 0.0
11/07:00am 14.8 13.5 11.4 80 1.8 E 9 11 5 6 1016.0 1015.9 0.0
11/06:30am 14.8 13.5 11.2 79 1.9 ESE 9 9 5 5 1015.8 1015.7 0.0
11/06:00am 15.0 13.6 10.8 76 2.2 ESE 9 13 5 7 1015.5 1015.5 0.0
11/05:30am 16.1 14.5 11.5 74 2.5 SSW 11 15 6 8 1015.3 1015.3 0.0
11/05:00am 15.9 14.6 11.3 74 2.5 SSW 9 11 5 6 1015.2 1015.2 0.0
11/04:30am 15.5 13.8 11.1 75 2.4 SSW 11 15 6 8 1015.2 1015.2 0.0
11/04:00am 15.6 13.5 11.0 74 2.5 SW 13 17 7 9 1015.0 1015.0 0.0
11/03:30am 15.9 13.1 11.3 74 2.5 SSW 17 19 9 10 1015.0 1015.0 0.0
11/03:00am 15.9 12.8 11.5 75 2.4 SW 19 24 10 13 1015.0 1015.0 0.0
11/02:30am 16.0 12.4 12.0 77 2.2 SW 22 26 12 14 1015.1 1015.1 0.0
11/02:00am 16.1 13.0 12.3 78 2.1 SW 20 24 11 13 1015.1 1015.1 0.0
11/01:30am 16.1 13.1 12.1 77 2.2 SW 19 22 10 12 1015.1 1015.1 0.0
11/01:00am 16.0 13.1 12.2 78 2.1 SW 19 22 10 12 1014.9 1014.9 0.0
11/12:30am 16.4 13.0 12.6 78 2.1 SW 22 28 12 15 1014.8 1014.8 0.0
11/12:00am 16.6 13.9 12.9 79 2.1 SW 19 24 10 13 1014.8 1014.8 0.0
 
Date/Time
EDT
Temp
°C
App
Temp
°C
Dew
Point
Rel
Hum
%
Delta-T
°C
Wind Press
QNH
hPa
Press
MSL
hPa
Rain
since 9 am
mm
Dir
 
Spd
km/h
Gust
km/h
Spd
kts
Gust
kts
10/11:30pm 16.7 14.5 13.2 80 2.0 SW 17 20 9 11 1014.7 1014.7 0.0
10/11:00pm 16.9 14.3 13.2 79 2.1 WSW 19 22 10 12 1014.7 1014.7 0.0
10/10:30pm 17.1 14.2 14.0 82 1.8 SW 22 28 12 15 1014.6 1014.6 0.0
10/10:00pm 17.2 14.4 14.3 83 1.7 SW 22 28 12 15 1014.5 1014.5 0.0
10/09:30pm 17.6 14.3 14.1 80 2.0 WSW 24 32 13 17 1014.2 1014.2 0.0
10/09:00pm 17.9 16.3 14.0 78 2.2 W 15 20 8 11 1014.1 1014.1 0.0
10/08:30pm 18.0 15.9 13.5 75 2.5 W 17 24 9 13 1013.9 1013.9 0.0
10/08:00pm 18.0 16.1 13.1 73 2.8 W 15 20 8 11 1013.8 1013.8 0.0
10/07:30pm 18.3 16.9 13.4 73 2.8 W 13 19 7 10 1013.7 1013.7 0.0
10/07:00pm 18.7 17.0 13.6 72 2.9 W 15 20 8 11 1013.5 1013.5 0.0
10/06:30pm 19.7 17.9 13.4 67 3.6 W 15 20 8 11 1013.3 1013.3 0.0
10/06:00pm 19.9 18.0 12.9 64 4.0 W 15 20 8 11 1013.1 1013.1 0.0
10/05:30pm 19.8 16.6 13.0 65 3.9 W 22 28 12 15 1013.1 1013.1 0.0
10/05:00pm 21.5 19.7 14.4 64 4.2 WNW 17 24 9 13 1013.2 1013.2 0.0
10/04:30pm 19.0 16.9 13.6 71 3.1 WNW 17 22 9 12 1013.2 1013.2 0.0
10/04:00pm 19.6 17.3 14.0 70 3.2 W 19 26 10 14 1013.2 1013.2 0.0
10/03:30pm 20.0 18.1 13.0 64 4.0 WNW 15 20 8 11 1013.4 1013.4 0.0
10/03:00pm 20.9 19.6 13.8 64 4.1 WNW 13 19 7 10 1013.6 1013.6 0.0
10/02:30pm 20.7 19.1 13.9 65 3.9 WNW 15 22 8 12 1013.8 1013.8 0.0
10/02:00pm 20.5 19.4 14.4 68 3.6 NNW 13 19 7 10 1013.8 1013.8 0.0
10/01:30pm 20.5 20.1 15.1 71 3.2 NNW 11 17 6 9 1013.8 1013.8 0.0
10/01:00pm 19.4 18.5 14.9 75 2.6 N 13 17 7 9 1013.9 1013.9 0.0
10/12:30pm 18.5 17.4 14.4 77 2.4 N 13 17 7 9 1014.0 1014.0 0.0
10/12:00pm 17.4 16.4 14.5 83 1.7 N 13 19 7 10 1014.1 1014.1 0.0
10/11:30am 17.7 17.8 14.4 81 1.9 N 7 11 4 6 1014.6 1014.6 0.0
10/11:00am 16.5 16.0 13.8 84 1.5 NNE 9 13 5 7 1014.6 1014.6 0.0
10/10:30am 16.6 16.1 13.7 83 1.6 NNE 9 13 5 7 1014.5 1014.5 0.0
10/10:00am 16.4 15.9 13.7 84 1.5 NNE 9 11 5 6 1014.5 1014.5 0.0

Other Formats:

Comma delimited format used in spreadsheet applications
http://www.bom.gov.au/fwo/IDT60801/IDT60801.94974.axf

JavaScript Object Notation format (JSON) in row-major order
http://www.bom.gov.au/fwo/IDT60801/IDT60801.94974.json